Time;durP1;ratioP1;P1;durP2;ratioP2;P2;SDS_P1;SDS_P2;PMS_P1;PMS_P2;Temp;Humidity;BMP_temperature;BMP_pressure;BME280_temperature;BME280_humidity;BME280_pressure;Samples;Min_cycle;Max_cycle;Signal;HPM_P1;HPM_P2
2022/08/19 00:01:46;;;;;;;6.10;5.58;;;;;;;28.45;54.88;100879.09;1663448;85;21495;-53
2022/08/19 00:04:14;;;;;;;6.60;6.00;;;;;;;28.44;54.74;100877.37;1675203;86;21021;-49
2022/08/19 00:06:43;;;;;;;6.33;5.83;;;;;;;28.43;54.62;100875.70;1674950;86;21754;-53
2022/08/19 00:09:11;;;;;;;7.20;6.50;;;;;;;28.41;54.56;100875.01;1674981;86;21018;-51
2022/08/19 00:11:39;;;;;;;7.00;6.40;;;;;;;28.40;54.63;100879.17;1675444;86;21061;-52
2022/08/19 00:14:08;;;;;;;6.33;5.83;;;;;;;28.38;54.71;100877.96;1675025;85;21042;-48
2022/08/19 00:16:36;;;;;;;6.87;6.28;;;;;;;28.36;54.44;100877.26;1675559;86;21061;-48
2022/08/19 00:19:03;;;;;;;7.00;6.35;;;;;;;28.34;54.54;100879.23;1675088;85;21608;-50
2022/08/19 00:21:30;;;;;;;6.55;6.05;;;;;;;28.34;54.67;100880.58;1674955;85;21065;-51
2022/08/19 00:23:59;;;;;;;7.55;6.30;;;;;;;28.32;54.78;100875.86;1675147;86;21081;-48
2022/08/19 00:26:27;;;;;;;7.03;6.42;;;;;;;28.31;54.83;100878.20;1657486;86;21568;-49
2022/08/19 00:28:55;;;;;;;7.15;6.45;;;;;;;28.30;55.04;100887.69;1622372;87;21077;-49
2022/08/19 00:31:22;;;;;;;7.22;6.62;;;;;;;28.28;55.25;100886.98;1671848;83;21054;-49
2022/08/19 00:33:51;;;;;;;6.95;6.20;;;;;;;28.25;55.35;100890.82;1753653;82;20991;-51
2022/08/19 00:36:19;;;;;;;9.10;6.80;;;;;;;28.24;55.47;100896.29;1754017;82;21018;-51
2022/08/19 00:38:46;;;;;;;7.20;6.28;;;;;;;28.21;55.46;100886.74;1753750;82;21042;-49
2022/08/19 00:41:14;;;;;;;8.03;7.22;;;;;;;28.19;55.71;100890.05;1753989;82;21487;-49
2022/08/19 00:43:41;;;;;;;7.20;6.50;;;;;;;28.17;55.82;100888.02;1753760;82;21120;-49
2022/08/19 00:46:08;;;;;;;7.58;6.97;;;;;;;28.16;55.92;100888.98;1754135;82;20998;-50
2022/08/19 00:48:35;;;;;;;7.58;6.92;;;;;;;28.15;56.05;100885.45;1754221;82;20986;-48
2022/08/19 00:51:03;;;;;;;8.10;7.33;;;;;;;28.14;56.32;100883.79;1753755;82;21057;-50
2022/08/19 00:53:31;;;;;;;7.45;6.75;;;;;;;28.14;56.44;100886.95;1725326;82;21073;-49
2022/08/19 00:55:59;;;;;;;7.53;6.83;;;;;;;28.13;56.61;100882.60;1753932;82;21058;-50
2022/08/19 00:58:29;;;;;;;7.08;6.42;;;;;;;28.14;56.79;100886.95;1753726;81;21031;-50
2022/08/19 01:00:56;;;;;;;7.53;6.83;;;;;;;28.14;56.86;100888.28;1753970;82;21018;-55
2022/08/19 01:03:23;;;;;;;8.50;7.70;;;;;;;28.15;56.92;100886.80;1753837;82;21596;-51
2022/08/19 01:05:50;;;;;;;9.25;8.35;;;;;;;28.16;56.94;100880.95;1753951;82;20995;-51
2022/08/19 01:08:18;;;;;;;7.95;7.15;;;;;;;28.17;56.90;100882.66;1753834;82;21058;-49
2022/08/19 01:10:48;;;;;;;7.62;6.92;;;;;;;28.18;56.91;100884.34;1753862;82;21518;-54
2022/08/19 01:13:18;;;;;;;8.00;7.20;;;;;;;28.19;56.86;100883.37;1753894;82;21053;-50
2022/08/19 01:15:51;;;;;;;7.40;6.80;;;;;;;28.19;56.84;100880.69;1729879;82;21545;-53
2022/08/19 01:18:18;;;;;;;8.18;7.45;;;;;;;28.20;56.86;100882.36;1751656;82;21045;-52
2022/08/19 01:20:45;;;;;;;8.95;7.17;;;;;;;28.19;56.91;100886.05;1753948;82;21037;-48
2022/08/19 01:23:12;;;;;;;8.28;7.50;;;;;;;28.18;56.82;100885.67;1753788;82;21018;-50
2022/08/19 01:25:47;;;;;;;8.38;7.40;;;;;;;28.18;56.75;100887.02;1750482;80;21118;-50
2022/08/19 01:28:25;;;;;;;7.97;7.28;;;;;;;28.18;56.74;100889.20;1742352;82;21550;-50
2022/08/19 01:30:52;;;;;;;8.30;7.53;;;;;;;28.18;56.77;100889.69;1742279;82;21543;-51
2022/08/19 01:33:19;;;;;;;7.85;7.12;;;;;;;28.19;56.74;100895.41;1747654;82;21042;-49
2022/08/19 01:35:50;;;;;;;8.63;7.92;;;;;;;28.19;56.67;100894.07;1747693;82;21034;-53
2022/08/19 01:38:24;;;;;;;8.78;7.92;;;;;;;28.18;56.65;100895.04;1743238;82;21026;-49
2022/08/19 01:40:51;;;;;;;8.98;7.15;;;;;;;28.18;56.66;100895.04;1747832;82;21019;-54
2022/08/19 01:43:18;;;;;;;8.35;7.55;;;;;;;28.17;56.66;100901.39;1747672;82;21503;-50
2022/08/19 01:45:45;;;;;;;8.30;7.50;;;;;;;28.16;56.73;100899.69;1747834;82;21047;-49
2022/08/19 01:48:13;;;;;;;7.75;7.05;;;;;;;28.14;56.73;100903.86;1747830;82;21502;-52
2022/08/19 01:50:39;;;;;;;8.00;7.05;;;;;;;28.13;56.70;100902.15;1747941;82;20955;-50
2022/08/19 01:53:09;;;;;;;7.80;7.10;;;;;;;28.12;56.69;100903.64;1747777;82;21483;-51
2022/08/19 01:55:38;;;;;;;8.13;7.42;;;;;;;28.10;56.61;100897.59;1743440;82;21023;-52
2022/08/19 01:58:05;;;;;;;8.85;7.08;;;;;;;28.10;56.49;100902.94;1741962;82;20991;-48
2022/08/19 02:00:32;;;;;;;7.80;7.20;;;;;;;28.08;56.40;100900.89;1747578;82;21011;-53
2022/08/19 02:03:00;;;;;;;8.38;7.45;;;;;;;28.05;56.40;100899.83;1747789;82;21019;-51
2022/08/19 02:05:29;;;;;;;8.53;7.72;;;;;;;28.01;56.48;100891.73;1747772;82;21042;-51
2022/08/19 02:07:56;;;;;;;12.37;7.35;;;;;;;28.02;56.60;100892.09;1747757;82;21050;-51
2022/08/19 02:10:25;;;;;;;7.42;6.75;;;;;;;28.00;56.64;100891.40;1747806;82;21043;-53
2022/08/19 02:12:52;;;;;;;8.60;7.78;;;;;;;28.00;56.64;100903.44;1730628;82;21047;-49
2022/08/19 02:15:19;;;;;;;8.40;7.62;;;;;;;28.00;56.73;100902.09;1747582;82;21034;-50
2022/08/19 02:17:47;;;;;;;9.50;7.20;;;;;;;27.98;56.92;100906.75;1747972;82;21035;-49
2022/08/19 02:20:14;;;;;;;8.55;7.85;;;;;;;27.96;56.82;100906.04;1747750;82;21085;-51
2022/08/19 02:22:43;;;;;;;8.50;7.65;;;;;;;27.93;56.79;100914.30;1747852;82;21495;-49
2022/08/19 02:25:13;;;;;;;8.53;7.72;;;;;;;27.89;56.91;100915.56;1754108;81;21089;-50
2022/08/19 02:27:41;;;;;;;7.85;7.15;;;;;;;27.87;57.12;100914.86;1779494;80;21030;-50
2022/08/19 02:30:12;;;;;;;9.13;7.72;;;;;;;27.85;57.38;100919.50;1779268;81;21062;-50
2022/08/19 02:32:39;;;;;;;8.20;7.12;;;;;;;27.85;57.45;100916.83;1649931;85;21074;-50
2022/08/19 02:35:07;;;;;;;7.85;7.12;;;;;;;27.85;57.52;100914.16;1678511;85;21587;-51
2022/08/19 02:40:22;;;;;;;8.28;7.58;;;;;;;27.84;57.76;100923.18;1679164;85;21015;-51
2022/08/19 02:42:49;;;;;;;8.25;7.55;;;;;;;27.86;57.76;100925.22;1681884;85;21511;-51
2022/08/19 02:45:16;;;;;;;8.20;7.40;;;;;;;27.83;57.88;100915.64;1681479;85;21066;-55
2022/08/19 02:47:43;;;;;;;8.25;6.72;;;;;;;27.81;58.05;100920.77;1682816;85;21092;-49
2022/08/19 02:50:09;;;;;;;7.55;6.95;;;;;;;27.76;58.30;100918.50;1682640;85;21523;-49
2022/08/19 02:52:37;;;;;;;7.92;6.12;;;;;;;27.74;58.49;100918.31;1679862;85;21062;-49
2022/08/19 02:55:05;;;;;;;7.33;6.70;;;;;;;27.70;58.73;100914.23;1679720;85;21027;-50
2022/08/19 02:57:32;;;;;;;7.53;6.83;;;;;;;27.68;58.77;100913.01;1683121;85;21501;-51
2022/08/19 02:59:59;;;;;;;9.53;7.17;;;;;;;27.66;58.57;100911.45;1616481;88;21128;-52
2022/08/19 03:02:27;;;;;;;6.83;6.20;;;;;;;27.64;58.53;100913.42;1680038;85;21614;-49
2022/08/19 03:04:54;;;;;;;6.95;6.45;;;;;;;27.61;58.46;100916.39;1683707;84;21578;-50
2022/08/19 03:07:20;;;;;;;7.20;6.50;;;;;;;27.59;58.36;100914.34;1619364;88;21065;-49
2022/08/19 03:09:47;;;;;;;7.30;6.70;;;;;;;27.57;58.39;100917.64;1681355;85;21043;-49
2022/08/19 03:12:14;;;;;;;6.80;6.22;;;;;;;27.55;58.34;100907.10;1681290;85;21515;-49
2022/08/19 03:14:40;;;;;;;7.90;7.00;;;;;;;27.56;58.28;100909.26;1683447;85;21074;-49
2022/08/19 03:17:07;;;;;;;8.30;7.05;;;;;;;27.58;58.31;100913.97;1622288;88;21085;-52
2022/08/19 03:19:35;;;;;;;7.83;7.12;;;;;;;27.58;58.35;100911.30;1681869;84;21026;-50
2022/08/19 03:22:03;;;;;;;8.03;6.85;;;;;;;27.58;58.45;100907.30;1680581;85;21042;-49
2022/08/19 03:24:31;;;;;;;7.62;6.90;;;;;;;27.57;58.55;100906.95;1678321;85;21026;-49
2022/08/19 03:26:58;;;;;;;8.13;6.97;;;;;;;27.55;58.50;100908.44;1622912;88;21056;-49
2022/08/19 03:29:27;;;;;;;10.18;6.90;;;;;;;27.57;58.37;100906.95;1681030;84;21094;-52
2022/08/19 03:31:54;;;;;;;10.40;7.47;;;;;;;27.56;58.47;100906.10;1615927;89;21064;-48
2022/08/19 03:34:27;;;;;;;7.50;6.90;;;;;;;27.57;58.48;100917.16;1615998;87;21033;-54
2022/08/19 03:36:56;;;;;;;7.85;7.08;;;;;;;27.58;58.50;100921.99;1677488;85;21054;-51
2022/08/19 03:39:23;;;;;;;7.80;7.10;;;;;;;27.56;58.52;100922.14;1687211;85;21504;-51
2022/08/19 03:41:51;;;;;;;7.25;6.55;;;;;;;27.56;58.45;100923.96;1684259;84;21034;-49
2022/08/19 03:44:21;;;;;;;8.75;7.05;;;;;;;27.57;58.47;100925.67;1686331;85;21501;-51
2022/08/19 03:46:53;;;;;;;7.83;7.12;;;;;;;27.56;58.63;100929.30;1685823;85;21507;-51
2022/08/19 03:49:20;;;;;;;8.03;7.33;;;;;;;27.55;58.64;100916.45;1619294;88;21615;-49
2022/08/19 03:51:48;;;;;;;8.40;7.70;;;;;;;27.55;58.70;100920.47;1619673;88;21042;-49
2022/08/19 03:54:17;;;;;;;8.53;7.72;;;;;;;27.52;58.67;100918.05;1620738;88;21031;-50
2022/08/19 03:56:44;;;;;;;8.05;7.17;;;;;;;27.54;58.87;100920.58;1620948;88;21004;-50
2022/08/19 03:59:15;;;;;;;8.75;7.95;;;;;;;27.55;58.80;100926.30;1620376;88;21591;-48
2022/08/19 04:01:42;;;;;;;8.98;8.03;;;;;;;27.56;58.84;100931.98;1614399;88;21556;-49
2022/08/19 04:04:08;;;;;;;7.75;7.05;;;;;;;27.55;58.72;100938.33;1620348;88;21085;-52
2022/08/19 04:06:36;;;;;;;8.93;8.05;;;;;;;27.54;58.70;100942.82;1620802;88;21566;-49
2022/08/19 04:09:07;;;;;;;8.50;7.80;;;;;;;27.54;58.75;100936.62;1621181;88;21103;-50
2022/08/19 04:14:11;;;;;;;8.60;7.78;;;;;;;27.57;58.32;100951.06;1618458;89;21060;-51
2022/08/19 04:16:38;;;;;;;8.60;7.75;;;;;;;27.57;58.32;100947.05;1606117;89;21081;-51
2022/08/19 04:19:05;;;;;;;7.80;7.08;;;;;;;27.60;58.38;100952.11;1618473;88;21028;-49
2022/08/19 04:21:33;;;;;;;8.13;7.30;;;;;;;27.64;58.29;100948.17;1618575;89;21025;-52
2022/08/19 04:24:00;;;;;;;8.70;7.80;;;;;;;27.66;58.14;100946.20;1618427;89;21634;-50
2022/08/19 04:26:31;;;;;;;8.40;7.62;;;;;;;27.67;57.91;100946.09;1610306;88;21173;-49
2022/08/19 04:29:00;;;;;;;10.72;8.05;;;;;;;27.68;57.80;100949.59;1603652;89;21021;-50
2022/08/19 04:31:30;;;;;;;8.28;7.53;;;;;;;27.69;57.79;100948.63;1603370;89;21014;-50
2022/08/19 04:33:59;;;;;;;8.20;7.50;;;;;;;27.71;57.85;100950.66;1603435;89;21050;-52
2022/08/19 04:36:32;;;;;;;8.90;7.62;;;;;;;27.72;57.88;100949.70;1596051;89;21527;-50
2022/08/19 04:39:03;;;;;;;8.98;8.23;;;;;;;27.76;57.63;100957.80;1550551;91;21550;-52
2022/08/19 04:44:17;;;;;;;8.68;7.97;;;;;;;27.74;57.57;100960.58;1549765;91;21130;-49
2022/08/19 04:49:17;;;;;;;9.20;8.28;;;;;;;27.71;57.58;100968.05;1536231;93;21117;-49
2022/08/19 04:51:45;;;;;;;11.57;9.10;;;;;;;27.68;57.64;100965.63;1538419;92;21614;-52
2022/08/19 04:54:12;;;;;;;10.53;9.53;;;;;;;27.65;58.07;100966.77;1532215;93;21117;-49
2022/08/19 04:56:40;;;;;;;11.80;10.50;;;;;;;27.63;58.58;100967.41;1532061;93;21199;-51
2022/08/19 04:59:08;;;;;;;10.68;9.78;;;;;;;27.62;58.84;100971.53;1531205;93;21082;-51
2022/08/19 05:01:36;;;;;;;10.85;9.70;;;;;;;27.59;58.97;100974.49;1531216;93;21145;-49
2022/08/19 05:04:05;;;;;;;11.30;10.13;;;;;;;27.58;59.05;100978.12;1533004;92;21109;-50
2022/08/19 05:06:33;;;;;;;11.57;10.45;;;;;;;27.55;59.04;100978.42;1533828;93;21150;-53
2022/08/19 05:09:03;;;;;;;10.60;9.60;;;;;;;27.55;59.12;100979.76;1533671;92;21130;-50
2022/08/19 05:11:33;;;;;;;11.48;10.13;;;;;;;27.56;59.18;100981.44;1567828;88;21032;-50
2022/08/19 05:14:01;;;;;;;10.68;9.63;;;;;;;27.56;59.05;100972.08;1585328;88;21099;-49
2022/08/19 05:16:28;;;;;;;10.68;9.68;;;;;;;27.56;59.02;100970.26;1585698;90;21600;-52
2022/08/19 05:24:26;;;;;;;11.50;10.40;;;;;;;27.55;59.02;100954.36;1582170;90;21119;-49
2022/08/19 05:26:56;;;;;;;11.40;9.78;;;;;;;27.57;58.95;100963.09;1600241;89;21199;-50
2022/08/19 05:29:24;;;;;;;10.40;9.50;;;;;;;27.58;58.98;100968.29;1610789;89;21021;-50
2022/08/19 05:31:51;;;;;;;10.45;9.55;;;;;;;27.59;58.81;100972.67;1604787;89;21085;-56
2022/08/19 05:36:51;;;;;;;11.08;9.98;;;;;;;27.64;58.51;100973.57;1533261;92;21077;-51
2022/08/19 05:39:20;;;;;;;11.22;9.88;;;;;;;27.66;58.25;100971.12;1502555;94;21134;-50
2022/08/19 05:41:52;;;;;;;12.03;10.58;;;;;;;27.69;58.02;100963.33;1479336;97;21102;-53
2022/08/19 05:44:21;;;;;;;11.18;10.28;;;;;;;27.72;58.10;100962.55;1531980;94;21088;-50
2022/08/19 05:46:48;;;;;;;11.28;10.23;;;;;;;27.77;58.03;100967.49;1531792;94;21104;-50
2022/08/19 05:49:16;;;;;;;11.25;10.28;;;;;;;27.80;57.97;100967.23;1502397;95;21123;-50
2022/08/19 05:51:43;;;;;;;11.18;10.20;;;;;;;27.86;57.95;100969.35;1552641;85;21110;-50
2022/08/19 05:54:13;;;;;;;12.18;10.70;;;;;;;27.93;57.93;100975.81;1665940;86;21098;-53
2022/08/19 05:56:38;;;;;;;11.60;10.40;;;;;;;27.99;57.68;100980.64;1665143;86;21066;-52
2022/08/19 05:59:08;;;;;;;11.38;10.38;;;;;;;28.05;57.57;100974.73;1666044;86;21050;-49
2022/08/19 06:01:39;;;;;;;10.88;9.85;;;;;;;28.13;57.59;100977.58;1666042;86;21045;-51
2022/08/19 06:04:06;;;;;;;10.95;9.95;;;;;;;28.23;57.37;100972.22;1666254;86;21057;-52
2022/08/19 06:06:34;;;;;;;11.90;9.58;;;;;;;28.30;57.03;100976.86;1665832;86;21546;-49
2022/08/19 06:09:05;;;;;;;13.83;10.38;;;;;;;28.38;56.76;100972.98;1665879;86;21059;-51
2022/08/19 06:11:37;;;;;;;12.88;10.48;;;;;;;28.47;56.63;100973.47;1665930;86;21022;-50
2022/08/19 06:14:14;;;;;;;11.33;10.23;;;;;;;28.60;56.33;100979.42;1666029;86;21049;-52
2022/08/19 06:16:41;;;;;;;10.35;9.48;;;;;;;28.72;56.00;100979.61;1666203;86;21502;-49
2022/08/19 06:19:12;;;;;;;11.05;10.05;;;;;;;28.84;55.75;100979.79;1665796;86;21054;-50
2022/08/19 06:21:42;;;;;;;11.00;10.05;;;;;;;28.93;55.39;100984.25;1666065;86;21094;-53
2022/08/19 06:24:11;;;;;;;11.03;9.93;;;;;;;29.02;55.11;100988.42;1665887;86;21590;-52
2022/08/19 06:26:40;;;;;;;11.03;9.93;;;;;;;29.10;54.87;100995.23;1663578;86;21589;-49
2022/08/19 06:29:08;;;;;;;11.40;10.15;;;;;;;29.15;54.81;100996.51;1661056;86;21022;-50
2022/08/19 06:31:36;;;;;;;11.78;10.68;;;;;;;29.20;54.59;100988.03;1660606;86;21042;-48
2022/08/19 06:34:04;;;;;;;10.90;9.80;;;;;;;29.22;54.59;100986.05;1742349;81;21019;-49
2022/08/19 06:36:40;;;;;;;11.15;10.25;;;;;;;29.22;54.43;100983.38;1778926;80;21057;-50
2022/08/19 06:39:19;;;;;;;12.35;10.18;;;;;;;29.24;54.21;100981.39;1644970;87;21085;-49
2022/08/19 06:41:48;;;;;;;10.30;9.38;;;;;;;29.26;54.10;100988.30;1638331;87;21029;-54
2022/08/19 06:44:18;;;;;;;10.80;9.80;;;;;;;29.29;53.76;100981.77;1646789;87;20997;-49
2022/08/19 06:46:45;;;;;;;9.80;8.70;;;;;;;29.32;53.63;100986.85;1648640;87;21094;-54
2022/08/19 06:49:13;;;;;;;10.45;9.63;;;;;;;29.32;53.44;100979.66;1650493;87;21033;-51
2022/08/19 06:51:43;;;;;;;10.88;9.80;;;;;;;29.33;53.52;100984.50;1648160;87;21071;-52
2022/08/19 06:54:10;;;;;;;10.68;9.68;;;;;;;29.37;53.39;100976.52;1648111;87;21111;-52
2022/08/19 06:56:38;;;;;;;11.12;9.90;;;;;;;29.40;53.37;100974.41;1647140;87;21062;-51
2022/08/19 06:59:10;;;;;;;10.28;9.30;;;;;;;29.49;53.24;100975.34;1646413;87;21045;-49
2022/08/19 07:01:39;;;;;;;11.10;9.90;;;;;;;29.55;53.14;100977.44;1646780;87;21043;-52
2022/08/19 07:04:06;;;;;;;9.75;8.75;;;;;;;29.61;52.60;100976.83;1647855;86;21068;-48
2022/08/19 07:06:34;;;;;;;10.85;9.83;;;;;;;29.65;52.63;100972.85;1647736;87;21104;-50
2022/08/19 07:09:01;;;;;;;10.90;9.70;;;;;;;29.72;52.52;100982.85;1647234;86;21015;-49
2022/08/19 07:11:30;;;;;;;11.12;10.08;;;;;;;29.78;52.36;100985.94;1646759;86;21495;-52
2022/08/19 07:13:57;;;;;;;10.88;9.88;;;;;;;29.84;52.27;100991.55;1646606;87;21006;-50
2022/08/19 07:16:24;;;;;;;10.45;9.43;;;;;;;29.87;52.21;100992.58;1650470;87;21494;-50
2022/08/19 07:18:51;;;;;;;10.65;9.60;;;;;;;29.91;52.28;100989.94;1648060;87;21066;-49
2022/08/19 07:21:22;;;;;;;10.43;9.48;;;;;;;29.93;52.06;100990.63;1648260;86;21031;-51
2022/08/19 07:23:49;;;;;;;12.00;10.35;;;;;;;29.98;52.05;100993.71;1607430;88;21129;-51
2022/08/19 07:26:22;;;;;;;11.48;9.78;;;;;;;30.04;51.73;100986.39;1612401;88;21063;-52
2022/08/19 07:28:49;;;;;;;10.75;9.43;;;;;;;30.11;51.69;100990.66;1586035;90;21404;-52
2022/08/19 07:31:19;;;;;;;10.60;9.50;;;;;;;30.20;51.56;100990.57;1584091;90;21108;-57
2022/08/19 07:33:47;;;;;;;10.90;9.90;;;;;;;30.32;51.36;100985.34;1584202;90;21019;-49
2022/08/19 07:36:16;;;;;;;12.05;8.95;;;;;;;30.41;51.04;100984.42;1660900;84;21088;-50
2022/08/19 07:38:46;;;;;;;11.20;9.65;;;;;;;30.47;50.73;100985.14;1695216;84;21064;-52
2022/08/19 07:41:15;;;;;;;12.55;10.58;;;;;;;30.54;50.65;100978.13;1695207;84;20995;-53
2022/08/19 07:43:43;;;;;;;11.05;9.95;;;;;;;30.58;50.32;100983.21;1695096;83;21120;-51
2022/08/19 07:46:10;;;;;;;10.78;9.78;;;;;;;30.58;50.47;100988.58;1678145;84;21033;-52
2022/08/19 07:48:37;;;;;;;11.28;10.23;;;;;;;30.57;50.47;100985.05;1692192;84;21009;-50
2022/08/19 07:51:07;;;;;;;10.55;9.45;;;;;;;30.57;50.81;100986.88;1692320;84;21005;-51
2022/08/19 07:53:33;;;;;;;10.98;9.75;;;;;;;30.57;50.98;100985.05;1693989;84;21575;-53
2022/08/19 07:56:03;;;;;;;10.45;9.00;;;;;;;30.60;50.80;100989.27;1695394;84;21053;-53
2022/08/19 07:58:34;;;;;;;12.25;9.53;;;;;;;30.63;50.59;100988.45;1691186;84;21045;-52
2022/08/19 08:01:03;;;;;;;11.08;9.75;;;;;;;30.66;50.82;100988.64;1688175;84;21588;-51
2022/08/19 08:09:12;;;;;;;10.63;9.68;;;;;;;30.81;50.88;100992.45;1695094;84;21034;-51
2022/08/19 08:11:49;;;;;;;10.40;9.18;;;;;;;30.85;50.76;100995.20;1695154;84;21038;-52
2022/08/19 08:14:22;;;;;;;9.35;8.55;;;;;;;30.90;50.61;100997.75;1596312;90;21097;-52
2022/08/19 08:16:50;;;;;;;11.20;10.20;;;;;;;30.97;50.29;101000.66;1568285;91;21275;-53
2022/08/19 08:19:22;;;;;;;9.98;9.08;;;;;;;31.00;50.55;101003.00;1576307;91;21595;-50
2022/08/19 08:21:49;;;;;;;9.90;9.00;;;;;;;31.03;50.63;101006.73;1550296;92;21168;-51
2022/08/19 08:24:16;;;;;;;10.35;9.35;;;;;;;31.06;50.58;101001.02;1550336;92;21108;-50
2022/08/19 08:29:12;;;;;;;11.68;9.50;;;;;;;31.15;50.31;101009.49;1560772;92;21642;-52
2022/08/19 08:31:41;;;;;;;11.10;9.45;;;;;;;31.19;50.34;100998.77;1560646;92;21095;-52
2022/08/19 08:34:09;;;;;;;10.20;9.20;;;;;;;31.24;50.12;101000.48;1552976;91;21078;-53
2022/08/19 08:36:44;;;;;;;11.65;9.58;;;;;;;31.28;50.25;100999.16;1553041;91;21065;-49
2022/08/19 08:39:14;;;;;;;11.08;8.40;;;;;;;31.31;49.94;100990.75;1552975;91;21537;-49
2022/08/19 08:42:07;;;;;;;9.50;8.70;;;;;;;31.35;49.76;100993.98;1553353;92;21057;-48
2022/08/19 08:44:57;;;;;;;10.25;8.50;;;;;;;31.37;49.68;100995.48;1477176;97;21176;-49
2022/08/19 08:47:24;;;;;;;9.55;8.63;;;;;;;31.39;50.04;100992.66;1473608;97;21103;-51
2022/08/19 08:49:55;;;;;;;9.43;8.13;;;;;;;31.44;49.60;100995.22;1423457;101;21113;-52
2022/08/19 08:52:31;;;;;;;8.55;7.75;;;;;;;31.49;49.13;100990.19;1429706;99;21181;-52
2022/08/19 08:54:59;;;;;;;11.68;8.65;;;;;;;31.54;48.90;100995.08;1436226;99;21142;-52
2022/08/19 08:57:55;;;;;;;8.88;7.75;;;;;;;31.60;48.61;100991.25;1463490;98;21125;-49
2022/08/19 09:00:35;;;;;;;8.43;7.65;;;;;;;31.63;48.23;100996.31;1416183;99;21103;-49
2022/08/19 09:03:03;;;;;;;7.87;7.17;;;;;;;31.67;48.21;100989.61;1417929;100;21598;-56
2022/08/19 09:05:42;;;;;;;10.40;7.37;;;;;;;31.71;48.04;100982.89;1406756;102;21155;-51
2022/08/19 09:08:14;;;;;;;10.30;7.50;;;;;;;31.77;47.83;100987.61;1351288;105;21282;-53
2022/08/19 09:10:45;;;;;;;9.55;7.90;;;;;;;31.84;47.70;100996.70;1350494;104;21143;-50
2022/08/19 09:13:32;;;;;;;7.35;6.70;;;;;;;31.91;47.78;100997.73;1359165;104;21091;-53
2022/08/19 09:16:04;;;;;;;11.03;7.17;;;;;;;31.97;47.64;100995.77;1360942;104;21164;-49
2022/08/19 09:18:48;;;;;;;7.55;6.83;;;;;;;32.03;47.41;100997.80;1344442;105;21199;-51
2022/08/19 09:21:15;;;;;;;7.47;6.67;;;;;;;32.10;47.58;100996.63;1331430;106;21197;-49
2022/08/19 09:23:43;;;;;;;10.10;6.30;;;;;;;32.16;47.19;100995.12;1332483;106;21168;-52
2022/08/19 09:26:13;;;;;;;10.58;6.70;;;;;;;32.24;46.77;101001.85;1345918;106;21193;-48
2022/08/19 09:28:44;;;;;;;8.20;7.27;;;;;;;32.29;46.21;101002.21;1356154;104;21768;-48
2022/08/19 09:31:20;;;;;;;7.10;6.30;;;;;;;32.33;46.17;101004.41;1360658;104;21121;-48
2022/08/19 09:33:47;;;;;;;7.83;7.03;;;;;;;32.39;46.08;101001.54;1365654;103;21114;-51
2022/08/19 09:36:16;;;;;;;7.45;6.55;;;;;;;32.44;45.93;101011.32;1389946;102;21135;-50
2022/08/19 09:38:42;;;;;;;7.92;6.58;;;;;;;32.48;45.91;101007.31;1399511;101;21075;-50
2022/08/19 09:41:13;;;;;;;9.18;6.10;;;;;;;32.54;45.90;101007.98;1377119;104;21205;-49
2022/08/19 09:43:41;;;;;;;6.47;5.95;;;;;;;32.56;45.63;101005.96;1346349;105;21140;-55
2022/08/19 09:46:09;;;;;;;7.75;6.42;;;;;;;32.58;45.81;100998.55;1346146;105;21199;-52
2022/08/19 09:48:37;;;;;;;9.98;5.37;;;;;;;32.61;45.55;100999.55;1383848;102;21699;-55
2022/08/19 09:51:15;;;;;;;7.50;5.50;;;;;;;32.62;45.19;100998.55;1408791;100;21151;-52
2022/08/19 09:53:44;;;;;;;5.97;5.40;;;;;;;32.65;44.86;101006.27;1421811;99;21633;-53
2022/08/19 09:56:12;;;;;;;6.45;5.58;;;;;;;32.67;44.97;101008.30;1412622;100;21185;-53
2022/08/19 09:58:39;;;;;;;6.35;5.75;;;;;;;32.69;45.03;101011.66;1428294;98;21238;-52
2022/08/19 10:01:07;;;;;;;5.33;4.87;;;;;;;32.71;45.35;101010.48;1449371;98;21162;-51
2022/08/19 10:03:35;;;;;;;5.33;4.80;;;;;;;32.73;44.06;101005.77;1449312;98;21103;-52
2022/08/19 10:06:04;;;;;;;7.40;4.80;;;;;;;32.75;44.14;101010.48;1486509;95;21127;-51
2022/08/19 10:08:34;;;;;;;5.55;4.55;;;;;;;32.77;44.04;101015.20;1484924;95;21107;-54
2022/08/19 10:11:01;;;;;;;9.43;5.47;;;;;;;32.81;43.92;101018.38;1486798;96;21144;-53
2022/08/19 10:13:29;;;;;;;5.40;4.78;;;;;;;32.85;44.11;101011.67;1487146;95;21075;-54
2022/08/19 10:16:03;;;;;;;5.95;5.22;;;;;;;32.91;44.25;101019.08;1487163;95;21163;-54
2022/08/19 10:18:33;;;;;;;6.50;4.78;;;;;;;32.93;43.87;101011.66;1508159;94;21071;-49
2022/08/19 10:21:09;;;;;;;5.65;4.83;;;;;;;32.97;44.17;101008.95;1529516;91;21137;-52
2022/08/19 10:23:38;;;;;;;6.30;4.80;;;;;;;33.01;44.24;101004.93;1566191;92;21069;-51
2022/08/19 10:26:05;;;;;;;6.35;4.70;;;;;;;33.04;44.32;101005.91;1564420;92;21161;-50
2022/08/19 10:28:37;;;;;;;5.25;4.75;;;;;;;33.10;44.37;101009.80;1590106;89;21143;-51
2022/08/19 10:31:06;;;;;;;6.40;4.00;;;;;;;33.11;43.76;101002.87;1594991;90;21084;-52
2022/08/19 10:33:34;;;;;;;4.53;4.10;;;;;;;33.15;42.94;101013.66;1594999;90;21120;-52
2022/08/19 10:36:09;;;;;;;4.47;3.75;;;;;;;33.18;42.91;101018.69;1565078;92;21089;-53
2022/08/19 10:38:37;;;;;;;4.97;4.15;;;;;;;33.21;43.24;101021.05;1534432;93;21054;-54
2022/08/19 10:41:17;;;;;;;7.85;5.10;;;;;;;33.25;43.11;101021.04;1620446;87;21141;-53
2022/08/19 10:43:44;;;;;;;7.90;6.05;;;;;;;33.33;43.58;101022.36;1645060;87;21572;-51
2022/08/19 10:46:14;;;;;;;7.47;6.83;;;;;;;33.36;44.47;101027.42;1643648;87;21063;-52
2022/08/19 10:48:42;;;;;;;12.03;8.03;;;;;;;33.42;44.77;101028.58;1647637;87;21110;-50
2022/08/19 10:53:55;;;;;;;8.58;7.03;;;;;;;33.48;44.97;101026.03;1631408;87;21046;-49
2022/08/19 10:59:07;;;;;;;8.18;7.37;;;;;;;33.55;44.35;101024.33;1645510;87;20987;-51
2022/08/19 11:01:34;;;;;;;11.48;8.35;;;;;;;33.57;44.14;101030.92;1643862;87;21071;-51
2022/08/19 11:04:02;;;;;;;10.13;8.25;;;;;;;33.56;43.99;101031.42;1645050;87;21535;-52
2022/08/19 11:06:31;;;;;;;11.00;7.80;;;;;;;33.56;44.17;101022.48;1643909;87;21078;-49
2022/08/19 11:08:59;;;;;;;9.73;8.78;;;;;;;33.55;44.44;101029.73;1644362;87;21023;-50
2022/08/19 11:11:28;;;;;;;10.75;8.98;;;;;;;33.53;44.45;101023.66;1644083;87;21102;-48
2022/08/19 11:13:54;;;;;;;8.55;7.75;;;;;;;33.53;44.35;101025.55;1644145;87;21099;-48
2022/08/19 11:16:25;;;;;;;12.28;8.88;;;;;;;33.50;44.27;101019.98;1644376;87;21031;-53
2022/08/19 11:18:58;;;;;;;11.73;8.65;;;;;;;33.50;44.25;101024.03;1632444;87;21003;-51
2022/08/19 11:21:32;;;;;;;11.43;8.30;;;;;;;33.49;44.16;101024.21;1631045;86;21101;-51
2022/08/19 11:24:04;;;;;;;12.15;8.98;;;;;;;33.47;44.18;101018.08;1626817;86;21132;-49
2022/08/19 11:26:31;;;;;;;10.63;8.17;;;;;;;33.46;44.37;101023.16;1628183;86;21559;-49
2022/08/19 11:28:59;;;;;;;10.00;7.80;;;;;;;33.45;44.06;101026.36;1625535;86;21085;-51
2022/08/19 11:31:33;;;;;;;10.75;7.87;;;;;;;33.44;43.86;101024.70;1631477;87;21199;-55
2022/08/19 11:34:02;;;;;;;10.28;7.40;;;;;;;33.45;43.62;101027.71;1619839;86;21074;-51
2022/08/19 11:36:30;;;;;;;9.23;7.92;;;;;;;33.46;43.83;101028.06;1625640;86;21555;-52
2022/08/19 11:38:56;;;;;;;12.80;9.53;;;;;;;33.50;44.01;101021.83;1625412;86;21093;-50
2022/08/19 11:41:23;;;;;;;9.93;9.00;;;;;;;33.54;44.46;101024.52;1629267;86;21537;-51
2022/08/19 11:43:53;;;;;;;9.38;8.40;;;;;;;33.57;44.71;101027.69;1609936;89;21058;-48
2022/08/19 11:46:20;;;;;;;13.25;9.10;;;;;;;33.59;44.83;101020.80;1627788;86;21544;-48
2022/08/19 11:48:49;;;;;;;9.05;8.20;;;;;;;33.62;44.92;101023.13;1625866;86;21574;-50
2022/08/19 11:51:19;;;;;;;9.25;8.33;;;;;;;33.67;45.01;101023.95;1625316;86;21085;-51
2022/08/19 11:53:46;;;;;;;9.13;8.10;;;;;;;33.71;45.03;101017.19;1625318;86;21106;-53
2022/08/19 11:56:13;;;;;;;9.83;8.68;;;;;;;33.73;45.13;101013.80;1623991;86;21038;-52
2022/08/19 11:58:41;;;;;;;9.80;8.80;;;;;;;33.77;45.08;101020.03;1622713;86;21096;-49
2022/08/19 12:01:09;;;;;;;13.35;8.98;;;;;;;33.80;44.98;101017.49;1626554;88;21061;-50
2022/08/19 12:03:37;;;;;;;13.35;9.33;;;;;;;33.83;44.81;101014.42;1627355;86;21119;-51